Time;durP1;ratioP1;P1;durP2;ratioP2;P2;SDS_P1;SDS_P2;PMS_P1;PMS_P2;Temp;Humidity;BMP_temperature;BMP_pressure;BME280_temperature;BME280_humidity;BME280_pressure;Samples;Min_cycle;Max_cycle;Signal;HPM_P1;HPM_P2
2023/08/23 00:00:31;;;;;;;;;;;17.50;99.90;;;;;;8399768;28;19923;-73
2023/08/23 00:04:34;;;;;;;;;;;17.50;99.90;;;;;;8414260;28;19948;-72
2023/08/23 00:08:36;;;;;;;;;;;17.40;99.90;;;;;;8400732;28;19947;-73
2023/08/23 00:12:40;;;;;;;;;;;17.40;99.90;;;;;;8416590;28;20218;-73
2023/08/23 00:16:41;;;;;;;;;;;17.40;99.90;;;;;;8408856;28;19924;-73
2023/08/23 00:20:43;;;;;;;;;;;17.40;99.90;;;;;;8405868;28;19932;-73
2023/08/23 00:24:44;;;;;;;;;;;17.30;99.90;;;;;;8415320;28;19928;-72
2023/08/23 00:28:46;;;;;;;;;;;17.30;99.90;;;;;;8424102;28;19969;-73
2023/08/23 00:32:48;;;;;;;;;;;17.30;99.90;;;;;;8396890;28;20233;-73
2023/08/23 00:36:49;;;;;;;;;;;17.30;99.90;;;;;;8417103;28;19925;-73
2023/08/23 00:40:51;;;;;;;;;;;17.20;99.90;;;;;;8416077;28;19951;-73
2023/08/23 00:44:53;;;;;;;;;;;17.20;99.90;;;;;;8415090;28;19928;-72
2023/08/23 00:48:54;;;;;;;;;;;17.20;99.90;;;;;;8419681;28;19924;-73
2023/08/23 00:52:56;;;;;;;;;;;17.10;99.90;;;;;;8404716;28;20490;-73
2023/08/23 00:57:00;;;;;;;;;;;17.10;99.90;;;;;;8376561;28;19925;-73
2023/08/23 01:01:01;;;;;;;;;;;17.00;99.90;;;;;;8418553;28;19928;-73
2023/08/23 01:05:03;;;;;;;;;;;16.90;99.90;;;;;;8410853;28;19929;-73
2023/08/23 01:09:37;;;;;;;;;;;16.90;99.90;;;;;;8400892;28;20776;-73
2023/08/23 01:13:44;;;;;;;;;;;16.90;99.90;;;;;;8390956;28;19931;-73
2023/08/23 01:17:47;;;;;;;;;;;16.90;99.90;;;;;;8384450;28;20314;-73
2023/08/23 01:21:51;;;;;;;;;;;16.90;99.90;;;;;;8397008;28;19925;-73
2023/08/23 01:25:53;;;;;;;;;;;16.80;99.90;;;;;;8413014;28;20193;-73
2023/08/23 01:29:55;;;;;;;;;;;16.80;99.90;;;;;;8418923;28;19981;-73
2023/08/23 01:34:12;;;;;;;;;;;16.70;99.90;;;;;;8419193;28;19929;-73
2023/08/23 01:38:15;;;;;;;;;;;16.70;99.90;;;;;;8411861;28;20330;-72
2023/08/23 01:42:16;;;;;;;;;;;16.70;99.90;;;;;;8420347;28;19982;-73
2023/08/23 01:46:18;;;;;;;;;;;16.70;99.90;;;;;;8405591;28;19925;-73
2023/08/23 01:50:20;;;;;;;;;;;16.70;99.90;;;;;;8404914;28;20015;-73
2023/08/23 01:54:21;;;;;;;;;;;16.70;99.90;;;;;;8403309;28;19978;-72
2023/08/23 01:58:25;;;;;;;;;;;16.70;99.90;;;;;;8399634;28;19940;-73
2023/08/23 02:02:27;;;;;;;;;;;16.60;99.90;;;;;;8395751;28;19928;-73
2023/08/23 02:06:29;;;;;;;;;;;16.60;99.90;;;;;;8414668;28;19924;-73
2023/08/23 02:10:30;;;;;;;;;;;16.50;99.90;;;;;;8388677;28;20391;-73
2023/08/23 02:14:32;;;;;;;;;;;16.50;99.90;;;;;;8401983;28;19931;-73
2023/08/23 02:18:33;;;;;;;;;;;16.40;99.90;;;;;;8424405;28;19932;-72
2023/08/23 02:22:35;;;;;;;;;;;16.40;99.90;;;;;;8419106;28;20345;-73
2023/08/23 02:26:37;;;;;;;;;;;16.40;99.90;;;;;;8415095;28;19932;-73
2023/08/23 02:30:39;;;;;;;;;;;16.40;99.90;;;;;;8412704;28;19924;-73
2023/08/23 02:34:40;;;;;;;;;;;16.40;99.90;;;;;;8387651;28;19928;-73
2023/08/23 02:38:42;;;;;;;;;;;16.30;99.90;;;;;;8419152;28;20284;-73
2023/08/23 02:42:43;;;;;;;;;;;16.30;99.90;;;;;;8401747;28;19932;-73
2023/08/23 02:46:45;;;;;;;;;;;16.30;99.90;;;;;;8420645;28;20265;-73
2023/08/23 02:50:47;;;;;;;;;;;16.20;99.90;;;;;;8420394;28;19925;-73
2023/08/23 02:54:48;;;;;;;;;;;16.20;99.90;;;;;;8410840;28;20342;-73
2023/08/23 02:58:50;;;;;;;;;;;16.10;99.90;;;;;;8416858;28;19929;-73
2023/08/23 03:02:52;;;;;;;;;;;16.10;99.90;;;;;;8400627;28;20421;-73
2023/08/23 03:06:53;;;;;;;;;;;16.10;99.90;;;;;;8408617;28;19934;-73
2023/08/23 03:11:03;;;;;;;;;;;16.10;99.90;;;;;;8408543;28;19978;-73
2023/08/23 03:15:05;;;;;;;;;;;16.10;99.90;;;;;;8412094;28;19966;-73
2023/08/23 03:19:07;;;;;;;;;;;16.10;99.90;;;;;;8404133;28;22494;-73
2023/08/23 03:23:09;;;;;;;;;;;16.00;99.90;;;;;;8417357;28;19954;-73
2023/08/23 03:27:10;;;;;;;;;;;16.00;99.90;;;;;;8400905;28;19932;-73
2023/08/23 03:31:12;;;;;;;;;;;16.00;99.90;;;;;;8406091;28;19924;-73
2023/08/23 03:35:14;;;;;;;;;;;15.90;99.90;;;;;;8425988;28;20269;-73
2023/08/23 03:39:15;;;;;;;;;;;15.90;99.90;;;;;;8430261;28;19924;-73
2023/08/23 03:43:17;;;;;;;;;;;15.90;99.90;;;;;;8413326;28;19928;-73
2023/08/23 03:47:19;;;;;;;;;;;15.90;99.90;;;;;;8393636;28;20265;-73
2023/08/23 03:51:20;;;;;;;;;;;15.90;99.90;;;;;;8407305;28;19928;-73
2023/08/23 03:55:22;;;;;;;;;;;15.90;99.90;;;;;;8415979;28;19936;-73
2023/08/23 03:59:24;;;;;;;;;;;15.90;99.90;;;;;;8396810;28;19954;-73
2023/08/23 04:03:25;;;;;;;;;;;15.90;99.90;;;;;;8423043;28;19925;-73
2023/08/23 04:07:27;;;;;;;;;;;15.80;99.90;;;;;;8396449;28;19930;-73
2023/08/23 04:11:29;;;;;;;;;;;15.80;99.90;;;;;;8401684;28;19924;-75
2023/08/23 04:15:31;;;;;;;;;;;15.70;99.90;;;;;;8385244;28;19970;-72
2023/08/23 04:19:33;;;;;;;;;;;15.70;99.90;;;;;;8413847;28;19974;-73
2023/08/23 04:23:35;;;;;;;;;;;15.70;99.90;;;;;;8418323;28;20384;-73
2023/08/23 04:27:37;;;;;;;;;;;15.70;99.90;;;;;;8408363;28;19924;-73
2023/08/23 04:31:39;;;;;;;;;;;15.70;99.90;;;;;;8416122;28;19965;-73
2023/08/23 04:35:40;;;;;;;;;;;15.70;99.90;;;;;;8407595;28;19924;-73
2023/08/23 04:39:42;;;;;;;;;;;15.60;99.90;;;;;;8398853;28;19978;-73
2023/08/23 04:43:44;;;;;;;;;;;15.60;99.90;;;;;;8406425;28;19928;-73
2023/08/23 04:47:46;;;;;;;;;;;15.60;99.90;;;;;;8394567;28;20414;-73
2023/08/23 04:51:48;;;;;;;;;;;15.60;99.90;;;;;;8404688;28;20007;-73
2023/08/23 04:55:50;;;;;;;;;;;15.60;99.90;;;;;;8421762;28;19924;-73
2023/08/23 04:59:53;;;;;;;;;;;15.60;99.90;;;;;;8396760;28;19924;-73
2023/08/23 05:03:54;;;;;;;;;;;15.60;99.90;;;;;;8411648;28;20349;-72
2023/08/23 05:07:56;;;;;;;;;;;15.60;99.90;;;;;;8412967;28;19924;-73
2023/08/23 05:11:58;;;;;;;;;;;15.60;99.90;;;;;;8430328;28;19924;-73
2023/08/23 05:16:00;;;;;;;;;;;15.60;99.90;;;;;;8409018;28;20366;-73
2023/08/23 05:20:02;;;;;;;;;;;15.60;99.90;;;;;;8407245;28;19998;-73
2023/08/23 05:24:04;;;;;;;;;;;15.70;99.90;;;;;;8433411;28;19925;-73
2023/08/23 05:28:05;;;;;;;;;;;15.70;99.90;;;;;;8415585;28;19942;-73
2023/08/23 05:32:07;;;;;;;;;;;15.70;99.90;;;;;;8405859;28;19948;-72
2023/08/23 05:36:09;;;;;;;;;;;15.70;99.90;;;;;;8418804;28;20283;-73
2023/08/23 05:40:10;;;;;;;;;;;15.80;99.90;;;;;;8385009;28;19941;-73
2023/08/23 05:44:12;;;;;;;;;;;15.90;99.90;;;;;;8408240;28;19932;-73
2023/08/23 05:48:14;;;;;;;;;;;15.90;99.90;;;;;;8400013;28;19932;-73
2023/08/23 05:52:15;;;;;;;;;;;16.10;99.90;;;;;;8401755;28;19924;-73
2023/08/23 05:56:17;;;;;;;;;;;16.20;99.90;;;;;;8410468;28;19929;-73
2023/08/23 06:00:19;;;;;;;;;;;16.30;99.90;;;;;;8397811;28;19928;-73
2023/08/23 06:04:21;;;;;;;;;;;16.40;99.90;;;;;;8405390;28;19978;-73
2023/08/23 06:08:22;;;;;;;;;;;16.50;99.90;;;;;;8400109;28;20446;-73
2023/08/23 06:12:25;;;;;;;;;;;16.60;99.90;;;;;;8398692;28;19935;-73
2023/08/23 06:16:26;;;;;;;;;;;16.70;99.90;;;;;;8398501;28;20023;-73
2023/08/23 06:20:28;;;;;;;;;;;16.80;99.90;;;;;;8410058;28;19931;-74
2023/08/23 06:24:30;;;;;;;;;;;17.00;99.90;;;;;;8401060;28;20448;-73
2023/08/23 06:28:32;;;;;;;;;;;17.10;99.90;;;;;;8419969;28;19925;-73
2023/08/23 06:32:34;;;;;;;;;;;17.30;99.90;;;;;;8422546;28;20400;-73
2023/08/23 06:36:35;;;;;;;;;;;17.40;99.90;;;;;;8413643;28;19924;-73
2023/08/23 06:40:37;;;;;;;;;;;17.50;99.90;;;;;;8404509;28;20325;-73
2023/08/23 06:44:39;;;;;;;;;;;17.70;99.90;;;;;;8421286;28;19974;-73
2023/08/23 06:48:41;;;;;;;;;;;17.80;99.90;;;;;;8404386;28;19925;-73
2023/08/23 06:57:45;;;;;;;;;;;18.00;99.90;;;;;;8413121;28;20386;-73
2023/08/23 07:01:49;;;;;;;;;;;18.20;99.90;;;;;;8405657;28;19954;-73
2023/08/23 07:05:51;;;;;;;;;;;18.30;99.90;;;;;;8415467;28;19928;-73
2023/08/23 07:09:53;;;;;;;;;;;18.40;99.90;;;;;;8394976;28;19925;-73
2023/08/23 07:13:54;;;;;;;;;;;18.50;99.90;;;;;;8402313;28;19939;-73
2023/08/23 07:17:56;;;;;;;;;;;18.60;99.90;;;;;;8417389;28;19954;-73
2023/08/23 07:27:20;;;;;;;;;;;18.80;99.90;;;;;;8408658;28;19954;-73
2023/08/23 07:31:21;;;;;;;;;;;18.90;99.90;;;;;;8423863;28;19924;-72
2023/08/23 07:35:23;;;;;;;;;;;19.00;99.90;;;;;;8399074;28;20375;-73
2023/08/23 07:39:27;;;;;;;;;;;19.10;99.90;;;;;;8409210;28;19925;-73
2023/08/23 07:43:29;;;;;;;;;;;19.10;99.90;;;;;;8395428;28;20279;-73
2023/08/23 07:47:30;;;;;;;;;;;19.20;99.90;;;;;;8422465;28;19924;-72
2023/08/23 07:51:32;;;;;;;;;;;19.30;99.90;;;;;;8409028;28;19980;-72
2023/08/23 07:55:34;;;;;;;;;;;19.40;99.90;;;;;;8441593;28;19924;-73
2023/08/23 07:59:36;;;;;;;;;;;19.50;99.90;;;;;;8419284;28;19969;-73
2023/08/23 08:03:39;;;;;;;;;;;19.60;99.90;;;;;;8418634;28;19924;-72
2023/08/23 08:07:41;;;;;;;;;;;19.70;99.90;;;;;;8429619;28;19924;-73
2023/08/23 08:11:45;;;;;;;;;;;19.80;99.90;;;;;;8403677;28;19981;-73
2023/08/23 08:15:47;;;;;;;;;;;19.90;99.90;;;;;;8409974;28;19924;-73
2023/08/23 08:19:49;;;;;;;;;;;20.00;99.90;;;;;;8411761;28;19992;-73
2023/08/23 08:23:50;;;;;;;;;;;20.10;99.90;;;;;;8422853;28;19924;-72
2023/08/23 08:27:52;;;;;;;;;;;20.20;99.90;;;;;;8399141;28;19932;-72
2023/08/23 08:31:54;;;;;;;;;;;20.30;99.90;;;;;;8421494;28;19931;-72
2023/08/23 08:35:55;;;;;;;;;;;20.40;99.90;;;;;;8419770;28;20371;-73
2023/08/23 08:39:57;;;;;;;;;;;20.50;99.90;;;;;;8415020;28;19931;-73
2023/08/23 08:43:59;;;;;;;;;;;20.60;99.90;;;;;;8402357;28;19931;-73
2023/08/23 08:48:01;;;;;;;;;;;20.70;99.90;;;;;;8418018;28;20345;-72
2023/08/23 08:52:04;;;;;;;;;;;20.80;99.90;;;;;;8425992;28;19971;-72
2023/08/23 08:56:06;;;;;;;;;;;20.90;99.90;;;;;;8400905;28;19928;-73
2023/08/23 09:00:08;;;;;;;;;;;21.00;99.90;;;;;;8400391;28;20383;-73
2023/08/23 09:04:12;;;;;;;;;;;21.10;99.90;;;;;;8426548;28;19924;-73
2023/08/23 09:08:14;;;;;;;;;;;21.20;99.90;;;;;;8404926;28;19932;-72
2023/08/23 09:12:16;;;;;;;;;;;21.20;99.90;;;;;;8402378;28;20551;-72
2023/08/23 09:16:18;;;;;;;;;;;21.30;99.90;;;;;;8406640;28;19932;-72
2023/08/23 09:20:20;;;;;;;;;;;21.30;99.90;;;;;;8416302;28;19932;-73
2023/08/23 09:24:22;;;;;;;;;;;21.40;99.90;;;;;;8422925;28;20351;-73
2023/08/23 09:28:28;;;;;;;;;;;21.50;99.90;;;;;;8416144;28;19990;-72
2023/08/23 09:32:30;;;;;;;;;;;21.60;99.90;;;;;;8417030;28;19924;-73
2023/08/23 09:36:41;;;;;;;;;;;21.70;99.90;;;;;;8421175;28;19924;-72
2023/08/23 09:40:43;;;;;;;;;;;21.70;99.90;;;;;;8403713;28;19938;-73
2023/08/23 09:44:46;;;;;;;;;;;21.80;99.90;;;;;;8422516;27;20380;-73
2023/08/23 09:48:49;;;;;;;;;;;21.90;99.90;;;;;;8408806;28;19991;-73
2023/08/23 09:52:54;;;;;;;;;;;22.00;99.90;;;;;;8432945;28;19932;-73
2023/08/23 09:56:56;;;;;;;;;;;22.10;99.90;;;;;;8419662;28;20444;-73
2023/08/23 10:00:58;;;;;;;;;;;22.10;99.90;;;;;;8404465;28;19946;-72
2023/08/23 10:05:00;;;;;;;;;;;22.20;99.90;;;;;;8397781;28;19925;-73
2023/08/23 10:09:03;;;;;;;;;;;22.20;99.90;;;;;;8428349;28;19924;-72
2023/08/23 10:13:05;;;;;;;;;;;22.30;99.90;;;;;;8421949;28;19946;-72
2023/08/23 10:17:08;;;;;;;;;;;22.40;99.90;;;;;;8424076;28;19924;-72
2023/08/23 10:21:11;;;;;;;;;;;22.50;99.90;;;;;;8409940;28;19924;-72
2023/08/23 10:25:14;;;;;;;;;;;22.50;99.90;;;;;;8415456;28;19924;-72
2023/08/23 10:29:22;;;;;;;;;;;22.60;99.90;;;;;;8423743;28;20406;-73
2023/08/23 10:33:23;;;;;;;;;;;22.80;99.90;;;;;;8417336;28;19933;-72
2023/08/23 10:37:25;;;;;;;;;;;22.80;99.90;;;;;;8419114;28;20909;-72
2023/08/23 10:41:27;;;;;;;;;;;22.90;99.90;;;;;;8402167;28;19934;-72
2023/08/23 10:45:28;;;;;;;;;;;22.90;99.90;;;;;;8419763;28;20008;-72
2023/08/23 10:49:31;;;;;;;;;;;23.00;99.90;;;;;;8402289;28;19932;-72
2023/08/23 10:53:32;;;;;;;;;;;23.00;99.90;;;;;;8403617;28;20977;-72
2023/08/23 10:57:34;;;;;;;;;;;23.10;99.90;;;;;;8412531;28;20388;-72
2023/08/23 11:01:38;;;;;;;;;;;23.10;99.90;;;;;;8413378;28;19932;-72
2023/08/23 11:05:39;;;;;;;;;;;23.20;99.90;;;;;;8406318;28;19936;-72
2023/08/23 11:20:04;;;;;;;;;;;23.40;99.90;;;;;;8410908;28;19950;-72
2023/08/23 11:39:16;;;;;;;;;;;23.60;99.90;;;;;;8414483;28;19964;-72
2023/08/23 11:43:17;;;;;;;;;;;23.70;99.90;;;;;;8416404;28;20292;-73
2023/08/23 11:47:24;;;;;;;;;;;23.80;99.90;;;;;;8426844;28;19928;-73
2023/08/23 11:51:35;;;;;;;;;;;23.90;99.90;;;;;;8408547;28;19924;-72
2023/08/23 11:55:37;;;;;;;;;;;23.90;99.90;;;;;;8424430;28;20405;-72
2023/08/23 11:59:39;;;;;;;;;;;24.00;99.90;;;;;;8412956;28;19924;-73
2023/08/23 12:03:40;;;;;;;;;;;24.10;99.90;;;;;;8416489;28;19924;-72
2023/08/23 12:07:42;;;;;;;;;;;24.10;99.90;;;;;;8426502;28;19977;-72
2023/08/23 12:11:44;;;;;;;;;;;24.10;99.90;;;;;;8417387;28;19935;-72
2023/08/23 12:15:46;;;;;;;;;;;24.10;99.90;;;;;;8423686;28;19928;-72
2023/08/23 12:19:48;;;;;;;;;;;24.00;99.90;;;;;;8431466;28;20318;-72
2023/08/23 12:23:50;;;;;;;;;;;24.10;99.90;;;;;;8432090;28;19977;-73
2023/08/23 12:27:52;;;;;;;;;;;24.20;99.90;;;;;;8423750;28;19928;-72
2023/08/23 12:31:53;;;;;;;;;;;24.30;99.90;;;;;;8417516;28;19925;-72
2023/08/23 12:35:58;;;;;;;;;;;24.30;99.90;;;;;;8412137;28;19981;-72
2023/08/23 12:40:00;;;;;;;;;;;24.40;99.90;;;;;;8410491;28;19930;-72
2023/08/23 12:44:03;;;;;;;;;;;24.40;99.90;;;;;;8410505;28;19925;-72
2023/08/23 12:48:04;;;;;;;;;;;24.40;99.90;;;;;;8419386;28;20275;-72
2023/08/23 12:52:06;;;;;;;;;;;24.50;99.90;;;;;;8422333;28;19935;-72
2023/08/23 12:56:08;;;;;;;;;;;24.50;99.90;;;;;;8405932;28;19935;-72
2023/08/23 13:00:11;;;;;;;;;;;24.60;99.90;;;;;;8413459;28;19931;-73
2023/08/23 13:04:19;;;;;;;;;;;24.70;99.90;;;;;;8411071;28;19925;-72
2023/08/23 13:08:20;;;;;;;;;;;24.80;99.90;;;;;;8411080;28;19964;-72
2023/08/23 13:12:22;;;;;;;;;;;24.80;99.90;;;;;;8414473;28;19947;-73
2023/08/23 13:16:24;;;;;;;;;;;24.90;99.90;;;;;;8414074;28;19931;-72
2023/08/23 13:20:25;;;;;;;;;;;25.00;99.90;;;;;;8396594;28;20372;-72
2023/08/23 13:24:27;;;;;;;;;;;25.00;99.90;;;;;;8413562;28;19924;-72
2023/08/23 13:28:29;;;;;;;;;;;25.10;99.90;;;;;;8407690;28;19931;-73
2023/08/23 13:32:31;;;;;;;;;;;25.10;99.90;;;;;;8391181;28;20362;-72
2023/08/23 13:36:32;;;;;;;;;;;25.10;99.90;;;;;;8407555;28;19924;-72
2023/08/23 13:40:34;;;;;;;;;;;25.20;99.90;;;;;;8400423;28;19978;-72
2023/08/23 13:44:36;;;;;;;;;;;25.20;99.90;;;;;;8417285;28;19928;-72
2023/08/23 13:48:37;;;;;;;;;;;25.30;99.90;;;;;;8397387;28;20342;-72
2023/08/23 13:52:39;;;;;;;;;;;25.30;99.90;;;;;;8409171;28;19928;-72
2023/08/23 13:56:41;;;;;;;;;;;25.30;99.90;;;;;;8403205;28;20275;-72
2023/08/23 14:00:43;;;;;;;;;;;25.30;99.90;;;;;;8412839;28;20286;-72
2023/08/23 14:04:45;;;;;;;;;;;25.40;99.90;;;;;;8417641;28;19931;-72
2023/08/23 14:08:47;;;;;;;;;;;25.40;99.90;;;;;;8420679;28;19932;-73
2023/08/23 14:17:52;;;;;;;;;;;25.50;99.90;;;;;;8399770;28;20309;-73
2023/08/23 14:21:54;;;;;;;;;;;25.50;99.90;;;;;;8425690;27;20433;-72
2023/08/23 14:25:55;;;;;;;;;;;25.50;99.90;;;;;;8394535;28;19932;-72
2023/08/23 14:29:57;;;;;;;;;;;25.50;99.90;;;;;;8408973;28;19928;-73
2023/08/23 14:33:59;;;;;;;;;;;25.50;99.90;;;;;;8406340;28;19923;-73
2023/08/23 14:38:01;;;;;;;;;;;25.60;99.90;;;;;;8419484;28;19924;-73
2023/08/23 14:42:02;;;;;;;;;;;25.50;99.90;;;;;;8409158;28;19924;-73
2023/08/23 14:46:04;;;;;;;;;;;25.60;99.90;;;;;;8387245;28;20307;-73
2023/08/23 14:50:06;;;;;;;;;;;25.60;99.90;;;;;;8408501;28;20352;-72
2023/08/23 14:54:08;;;;;;;;;;;25.70;99.90;;;;;;8414034;28;19924;-73
2023/08/23 14:58:09;;;;;;;;;;;25.70;99.90;;;;;;8404855;28;19968;-72
2023/08/23 15:02:12;;;;;;;;;;;25.70;99.90;;;;;;8411645;28;19925;-73
2023/08/23 15:06:13;;;;;;;;;;;25.80;99.90;;;;;;8408859;28;20359;-72
2023/08/23 15:10:15;;;;;;;;;;;25.90;99.90;;;;;;8425158;28;19925;-72
2023/08/23 15:14:17;;;;;;;;;;;26.10;99.90;;;;;;8417413;28;19935;-73
2023/08/23 15:18:18;;;;;;;;;;;26.20;99.90;;;;;;8396785;28;19924;-73
2023/08/23 15:22:20;;;;;;;;;;;26.40;99.90;;;;;;8402956;28;19968;-72
2023/08/23 15:26:22;;;;;;;;;;;26.50;99.90;;;;;;8402915;28;19932;-73
2023/08/23 15:30:23;;;;;;;;;;;26.60;99.90;;;;;;8416718;28;19931;-73
2023/08/23 15:34:31;;;;;;;;;;;26.70;99.90;;;;;;8411220;28;19929;-73
2023/08/23 15:38:33;;;;;;;;;;;26.70;99.90;;;;;;8410154;28;19938;-73
2023/08/23 15:42:36;;;;;;;;;;;26.80;99.90;;;;;;8413395;28;19924;-73
2023/08/23 15:46:38;;;;;;;;;;;27.00;99.90;;;;;;8406251;28;19936;-73
2023/08/23 15:50:40;;;;;;;;;;;27.20;99.90;;;;;;8376376;28;19924;-73
2023/08/23 15:54:42;;;;;;;;;;;27.40;99.90;;;;;;8407024;28;19928;-73
2023/08/23 15:58:43;;;;;;;;;;;27.60;99.90;;;;;;8404264;28;19928;-73
2023/08/23 16:02:45;;;;;;;;;;;27.90;99.90;;;;;;8414838;28;20302;-72
2023/08/23 16:06:47;;;;;;;;;;;28.20;99.90;;;;;;8425840;28;19924;-73
2023/08/23 16:10:50;;;;;;;;;;;28.40;99.90;;;;;;8413601;28;19924;-73
2023/08/23 16:14:52;;;;;;;;;;;28.70;99.90;;;;;;8420836;28;20368;-73
2023/08/23 16:18:54;;;;;;;;;;;28.80;99.90;;;;;;8416673;28;19924;-73
2023/08/23 16:22:56;;;;;;;;;;;29.00;99.90;;;;;;8426094;28;19924;-73
2023/08/23 16:26:57;;;;;;;;;;;28.80;99.90;;;;;;8420829;28;20019;-72
2023/08/23 16:30:59;;;;;;;;;;;28.80;99.90;;;;;;8413521;28;20367;-73
2023/08/23 16:35:01;;;;;;;;;;;28.80;99.90;;;;;;8392899;28;19924;-73
2023/08/23 16:39:03;;;;;;;;;;;28.90;99.90;;;;;;8407753;28;19924;-72
2023/08/23 16:43:05;;;;;;;;;;;28.90;99.90;;;;;;8410386;28;19924;-73
2023/08/23 16:47:07;;;;;;;;;;;28.90;99.90;;;;;;8423426;28;19993;-72
2023/08/23 16:51:09;;;;;;;;;;;28.90;99.90;;;;;;8409853;28;19981;-72
2023/08/23 16:55:10;;;;;;;;;;;28.80;99.90;;;;;;8418379;28;19924;-73
2023/08/23 16:59:12;;;;;;;;;;;28.60;99.90;;;;;;8389516;28;19939;-73
2023/08/23 17:03:14;;;;;;;;;;;28.50;99.90;;;;;;8393865;28;19935;-73
2023/08/23 17:07:15;;;;;;;;;;;28.40;99.90;;;;;;8404894;28;19932;-73
2023/08/23 17:11:17;;;;;;;;;;;28.20;99.90;;;;;;8411872;28;20065;-73
2023/08/23 17:15:19;;;;;;;;;;;28.10;99.90;;;;;;8417033;28;19980;-72
2023/08/23 17:19:20;;;;;;;;;;;27.90;99.90;;;;;;8419844;28;20338;-73
2023/08/23 17:23:22;;;;;;;;;;;27.60;99.90;;;;;;8413523;28;19924;-73
2023/08/23 17:27:24;;;;;;;;;;;27.30;99.90;;;;;;8396945;28;19981;-72
2023/08/23 17:31:26;;;;;;;;;;;27.00;99.90;;;;;;8414435;28;19924;-73
2023/08/23 17:35:27;;;;;;;;;;;26.80;99.90;;;;;;8411836;28;19963;-73
2023/08/23 17:39:29;;;;;;;;;;;26.50;99.90;;;;;;8409705;28;19932;-72
2023/08/23 17:43:34;;;;;;;;;;;26.20;99.90;;;;;;8412383;28;19924;-72
2023/08/23 17:47:35;;;;;;;;;;;26.00;99.90;;;;;;8385358;28;19925;-73
2023/08/23 17:51:38;;;;;;;;;;;25.80;99.90;;;;;;8407123;28;19924;-72
2023/08/23 17:55:39;;;;;;;;;;;25.60;99.90;;;;;;8410523;28;20257;-72
2023/08/23 17:59:41;;;;;;;;;;;25.50;99.90;;;;;;8409944;28;19924;-73
2023/08/23 18:03:43;;;;;;;;;;;25.30;99.90;;;;;;8386579;28;19973;-72
2023/08/23 18:07:45;;;;;;;;;;;25.20;99.90;;;;;;8381895;28;19924;-72
2023/08/23 18:11:46;;;;;;;;;;;25.00;99.90;;;;;;8432033;28;19931;-73
2023/08/23 18:15:48;;;;;;;;;;;24.90;99.90;;;;;;8412361;28;19928;-73
2023/08/23 18:19:50;;;;;;;;;;;24.80;99.90;;;;;;8401286;28;19933;-72
2023/08/23 18:23:52;;;;;;;;;;;24.80;99.90;;;;;;8418803;28;19947;-72
2023/08/23 18:27:54;;;;;;;;;;;24.70;99.90;;;;;;8404878;28;20317;-73
2023/08/23 18:31:55;;;;;;;;;;;24.70;99.90;;;;;;8410627;28;20294;-72
2023/08/23 18:35:58;;;;;;;;;;;24.60;99.90;;;;;;8411535;28;20265;-73
2023/08/23 18:40:00;;;;;;;;;;;24.60;99.90;;;;;;8409803;28;20243;-72
2023/08/23 18:44:02;;;;;;;;;;;24.50;99.90;;;;;;8405281;28;20293;-72
2023/08/23 18:48:03;;;;;;;;;;;24.40;99.90;;;;;;8409018;28;20291;-72
2023/08/23 18:52:05;;;;;;;;;;;24.20;99.90;;;;;;8404133;28;19975;-73
2023/08/23 18:56:07;;;;;;;;;;;24.20;99.90;;;;;;8405256;28;19925;-73
2023/08/23 19:00:09;;;;;;;;;;;24.10;99.90;;;;;;8427438;28;19935;-72
2023/08/23 19:04:10;;;;;;;;;;;24.10;99.90;;;;;;8414727;28;19924;-72
2023/08/23 19:08:12;;;;;;;;;;;24.10;99.90;;;;;;8412629;28;19925;-72
2023/08/23 19:12:14;;;;;;;;;;;24.10;99.90;;;;;;8410757;28;20404;-72
2023/08/23 19:16:16;;;;;;;;;;;24.00;99.90;;;;;;8398486;28;20323;-73
2023/08/23 19:20:23;;;;;;;;;;;23.90;99.90;;;;;;8419628;28;19932;-73
2023/08/23 19:24:25;;;;;;;;;;;23.80;99.90;;;;;;8406334;28;19928;-72
2023/08/23 19:28:27;;;;;;;;;;;23.60;99.90;;;;;;8396712;28;19931;-72
2023/08/23 19:32:30;;;;;;;;;;;23.50;99.90;;;;;;8413714;28;20287;-72
2023/08/23 19:36:36;;;;;;;;;;;23.50;99.90;;;;;;8411541;28;20367;-72
2023/08/23 19:40:37;;;;;;;;;;;23.40;99.90;;;;;;8402453;28;20398;-72
2023/08/23 19:44:40;;;;;;;;;;;23.30;99.90;;;;;;8411944;28;19965;-72
2023/08/23 19:48:42;;;;;;;;;;;23.30;99.90;;;;;;8424886;28;19924;-72
2023/08/23 19:52:45;;;;;;;;;;;23.20;99.90;;;;;;8403719;28;19928;-72
2023/08/23 19:56:46;;;;;;;;;;;23.10;99.90;;;;;;8434420;28;19939;-72
2023/08/23 20:00:48;;;;;;;;;;;23.00;99.90;;;;;;8402066;28;19924;-72
2023/08/23 20:04:50;;;;;;;;;;;23.00;99.90;;;;;;8410846;28;19935;-73
2023/08/23 20:08:52;;;;;;;;;;;22.90;99.90;;;;;;8404075;28;20387;-72
2023/08/23 20:12:53;;;;;;;;;;;22.80;99.90;;;;;;8411134;28;19924;-72
2023/08/23 20:16:55;;;;;;;;;;;22.80;99.90;;;;;;8408339;28;19925;-72
2023/08/23 20:20:57;;;;;;;;;;;22.70;99.90;;;;;;8403210;28;19925;-72
2023/08/23 20:24:58;;;;;;;;;;;22.70;99.90;;;;;;8402970;28;19932;-72
2023/08/23 20:29:00;;;;;;;;;;;22.60;99.90;;;;;;8404005;28;20369;-73
2023/08/23 20:38:36;;;;;;;;;;;22.50;99.90;;;;;;8406193;28;20478;-72
2023/08/23 20:42:38;;;;;;;;;;;22.50;99.90;;;;;;8408973;28;19927;-72
2023/08/23 20:56:49;;;;;;;;;;;22.10;99.90;;;;;;8396501;28;19919;-72
2023/08/23 21:00:58;;;;;;;;;;;22.00;99.90;;;;;;8404880;28;19982;-72
2023/08/23 21:04:59;;;;;;;;;;;21.80;99.90;;;;;;8385731;28;20471;-72
2023/08/23 21:09:01;;;;;;;;;;;21.70;99.90;;;;;;8422095;28;19989;-73
2023/08/23 21:13:05;;;;;;;;;;;21.50;99.90;;;;;;8384539;28;19932;-72
2023/08/23 21:17:07;;;;;;;;;;;21.40;99.90;;;;;;8404275;28;19928;-72
2023/08/23 21:21:08;;;;;;;;;;;21.20;99.90;;;;;;8390188;28;19977;-72
2023/08/23 21:25:12;;;;;;;;;;;21.10;99.90;;;;;;8406957;28;19924;-73
2023/08/23 21:29:13;;;;;;;;;;;21.00;99.90;;;;;;8405634;28;19928;-72
2023/08/23 21:33:15;;;;;;;;;;;20.90;99.90;;;;;;8407319;28;19973;-72
2023/08/23 21:37:18;;;;;;;;;;;20.90;99.90;;;;;;8401093;28;19933;-72
2023/08/23 21:41:19;;;;;;;;;;;20.80;99.90;;;;;;8413172;28;19924;-72
2023/08/23 21:45:21;;;;;;;;;;;20.70;99.90;;;;;;8404240;28;20340;-72
2023/08/23 21:49:24;;;;;;;;;;;20.70;99.90;;;;;;8405282;28;20440;-72
2023/08/23 21:53:25;;;;;;;;;;;20.70;99.90;;;;;;8414812;28;19928;-73
2023/08/23 21:57:58;;;;;;;;;;;20.60;99.90;;;;;;8402376;28;19928;-72
2023/08/23 22:02:00;;;;;;;;;;;20.50;99.90;;;;;;8406451;28;19925;-72
2023/08/23 22:06:03;;;;;;;;;;;20.30;99.90;;;;;;8416471;28;19924;-72
2023/08/23 22:10:05;;;;;;;;;;;20.30;99.90;;;;;;8424628;28;19977;-73
2023/08/23 22:14:07;;;;;;;;;;;20.20;99.90;;;;;;8402466;28;19928;-73
2023/08/23 22:18:09;;;;;;;;;;;20.20;99.90;;;;;;8385891;28;19966;-73
2023/08/23 22:22:11;;;;;;;;;;;20.20;99.90;;;;;;8402670;28;19935;-72
2023/08/23 22:26:13;;;;;;;;;;;20.30;99.90;;;;;;8404584;28;20065;-72
2023/08/23 22:30:14;;;;;;;;;;;20.30;99.90;;;;;;8396934;28;19925;-72
2023/08/23 22:34:16;;;;;;;;;;;20.20;99.90;;;;;;8391735;28;19925;-72
2023/08/23 22:38:18;;;;;;;;;;;20.10;99.90;;;;;;8410541;28;19932;-73
2023/08/23 22:42:19;;;;;;;;;;;20.00;99.90;;;;;;8398346;28;19925;-73
2023/08/23 22:46:21;;;;;;;;;;;19.90;99.90;;;;;;8408987;28;20255;-73
2023/08/23 22:50:32;;;;;;;;;;;19.80;99.90;;;;;;8397825;28;20284;-73
2023/08/23 22:54:34;;;;;;;;;;;19.80;99.90;;;;;;8400481;28;19924;-72
2023/08/23 22:58:35;;;;;;;;;;;19.80;99.90;;;;;;8397181;28;20049;-73
2023/08/23 23:02:37;;;;;;;;;;;19.80;99.90;;;;;;8408379;28;19933;-74
2023/08/23 23:06:39;;;;;;;;;;;19.70;99.90;;;;;;8405034;28;20352;-73
2023/08/23 23:10:50;;;;;;;;;;;19.70;99.90;;;;;;8411641;28;19928;-73
2023/08/23 23:14:52;;;;;;;;;;;19.70;99.90;;;;;;8409692;28;19932;-73
2023/08/23 23:18:54;;;;;;;;;;;19.60;99.90;;;;;;8389177;28;19981;-73
2023/08/23 23:22:56;;;;;;;;;;;19.60;99.90;;;;;;8412884;28;20264;-73
2023/08/23 23:26:57;;;;;;;;;;;19.70;99.90;;;;;;8418108;28;19923;-73
2023/08/23 23:31:03;;;;;;;;;;;19.70;99.90;;;;;;8438021;28;20608;-73
2023/08/23 23:35:05;;;;;;;;;;;19.80;99.90;;;;;;8410543;28;19925;-73
2023/08/23 23:39:06;;;;;;;;;;;19.80;99.90;;;;;;8415150;28;19924;-73
2023/08/23 23:43:08;;;;;;;;;;;19.90;99.90;;;;;;8416195;28;20363;-72
2023/08/23 23:47:10;;;;;;;;;;;19.90;99.90;;;;;;8400278;28;19925;-73
2023/08/23 23:51:11;;;;;;;;;;;19.90;99.90;;;;;;8407344;28;19932;-73
2023/08/23 23:55:13;;;;;;;;;;;19.90;99.90;;;;;;8411692;28;19936;-73
2023/08/23 23:59:15;;;;;;;;;;;19.90;99.90;;;;;;8407087;28;20446;-72
